sensor_id;sensor_type;location;lat;lon;timestamp;pressure;altitude;pressure_sealevel;temperature;humidity
62510;BME280;48558;48.242;11.654;2022-07-04T00:00:18;96350.44;;;17.70;100.00
62510;BME280;48558;48.242;11.654;2022-07-04T00:06:11;96353.50;;;17.96;98.78
62510;BME280;48558;48.242;11.654;2022-07-04T00:12:31;96372.44;;;18.20;98.11
62510;BME280;48558;48.242;11.654;2022-07-04T00:18:28;96371.72;;;18.13;98.00
62510;BME280;48558;48.242;11.654;2022-07-04T00:24:02;96314.56;;;17.92;93.00
62510;BME280;48558;48.242;11.654;2022-07-04T00:30:02;96344.31;;;18.25;92.94
62510;BME280;48558;48.242;11.654;2022-07-04T00:35:51;96387.78;;;18.67;88.16
62510;BME280;48558;48.242;11.654;2022-07-04T00:41:35;96324.38;;;18.29;88.09
62510;BME280;48558;48.242;11.654;2022-07-04T00:47:29;96385.81;;;18.38;98.24
62510;BME280;48558;48.242;11.654;2022-07-04T00:59:09;96385.34;;;18.34;92.27
62510;BME280;48558;48.242;11.654;2022-07-04T01:11:31;96403.25;;;17.95;100.00
62510;BME280;48558;48.242;11.654;2022-07-04T01:17:17;96388.50;;;17.89;100.00
62510;BME280;48558;48.242;11.654;2022-07-04T01:22:58;96399.34;;;17.69;100.00
62510;BME280;48558;48.242;11.654;2022-07-04T01:34:17;96405.94;;;17.30;100.00
62510;BME280;48558;48.242;11.654;2022-07-04T01:39:53;96342.47;;;16.98;100.00
62510;BME280;48558;48.242;11.654;2022-07-04T01:45:38;96391.19;;;17.30;100.00
62510;BME280;48558;48.242;11.654;2022-07-04T01:51:08;96342.59;;;16.70;100.00
62510;BME280;48558;48.242;11.654;2022-07-04T02:15:42;96309.06;;;16.42;100.00
62510;BME280;48558;48.242;11.654;2022-07-04T02:28:10;96349.25;;;16.61;100.00
62510;BME280;48558;48.242;11.654;2022-07-04T02:33:47;96366.53;;;16.54;100.00
62510;BME280;48558;48.242;11.654;2022-07-04T02:39:34;96337.53;;;16.52;100.00
62510;BME280;48558;48.242;11.654;2022-07-04T02:45:23;96358.66;;;16.64;100.00
62510;BME280;48558;48.242;11.654;2022-07-04T02:51:15;96350.03;;;16.45;100.00
62510;BME280;48558;48.242;11.654;2022-07-04T02:57:08;96335.28;;;16.34;100.00
62510;BME280;48558;48.242;11.654;2022-07-04T03:03:19;96384.91;;;16.11;100.00
62510;BME280;48558;48.242;11.654;2022-07-04T03:15:13;96390.50;;;16.22;100.00
62510;BME280;48558;48.242;11.654;2022-07-04T03:27:01;96336.16;;;16.01;100.00
62510;BME280;48558;48.242;11.654;2022-07-04T03:38:40;96368.91;;;16.06;100.00
62510;BME280;48558;48.242;11.654;2022-07-04T03:44:21;96412.59;;;16.37;100.00
62510;BME280;48558;48.242;11.654;2022-07-04T03:50:12;96417.19;;;16.29;100.00
62510;BME280;48558;48.242;11.654;2022-07-04T03:55:45;96417.97;;;16.35;100.00
62510;BME280;48558;48.242;11.654;2022-07-04T04:01:50;96427.84;;;16.36;100.00
62510;BME280;48558;48.242;11.654;2022-07-04T04:14:14;96414.16;;;16.32;100.00
62510;BME280;48558;48.242;11.654;2022-07-04T04:20:06;96466.78;;;16.61;100.00
62510;BME280;48558;48.242;11.654;2022-07-04T04:25:56;96429.88;;;16.41;100.00
62510;BME280;48558;48.242;11.654;2022-07-04T04:38:37;96496.78;;;16.66;100.00
62510;BME280;48558;48.242;11.654;2022-07-04T04:44:08;96437.28;;;16.27;100.00
62510;BME280;48558;48.242;11.654;2022-07-04T04:49:59;96483.28;;;16.82;100.00
62510;BME280;48558;48.242;11.654;2022-07-04T04:55:38;96458.91;;;17.28;100.00
62510;BME280;48558;48.242;11.654;2022-07-04T05:01:25;96453.44;;;17.64;100.00
62510;BME280;48558;48.242;11.654;2022-07-04T05:07:06;96484.94;;;17.75;100.00
62510;BME280;48558;48.242;11.654;2022-07-04T05:24:50;96497.00;;;18.05;100.00
62510;BME280;48558;48.242;11.654;2022-07-04T05:30:35;96510.09;;;18.33;100.00
62510;BME280;48558;48.242;11.654;2022-07-04T05:48:56;96533.34;;;19.11;100.00
62510;BME280;48558;48.242;11.654;2022-07-04T05:54:20;96475.41;;;19.32;100.00
62510;BME280;48558;48.242;11.654;2022-07-04T06:00:03;96509.78;;;19.44;100.00
62510;BME280;48558;48.242;11.654;2022-07-04T06:05:54;96495.72;;;19.44;100.00
62510;BME280;48558;48.242;11.654;2022-07-04T06:11:52;96554.91;;;20.13;100.00
62510;BME280;48558;48.242;11.654;2022-07-04T06:17:28;96531.38;;;19.54;100.00
62510;BME280;48558;48.242;11.654;2022-07-04T06:23:16;96553.66;;;19.71;99.67
62510;BME280;48558;48.242;11.654;2022-07-04T06:29:00;96531.31;;;19.36;100.00
62510;BME280;48558;48.242;11.654;2022-07-04T06:34:32;96565.56;;;19.59;100.00
62510;BME280;48558;48.242;11.654;2022-07-04T06:40:50;96514.69;;;19.19;100.00
62510;BME280;48558;48.242;11.654;2022-07-04T06:46:50;96539.88;;;19.49;100.00
62510;BME280;48558;48.242;11.654;2022-07-04T06:52:32;96554.03;;;20.05;95.64
62510;BME280;48558;48.242;11.654;2022-07-04T06:58:16;96529.31;;;19.98;91.85
62510;BME280;48558;48.242;11.654;2022-07-04T07:03:57;96545.28;;;19.66;92.88
62510;BME280;48558;48.242;11.654;2022-07-04T07:09:24;96517.03;;;19.15;98.99
62510;BME280;48558;48.242;11.654;2022-07-04T07:20:41;96548.00;;;19.04;100.00
62510;BME280;48558;48.242;11.654;2022-07-04T07:26:16;96514.16;;;18.91;98.97
62510;BME280;48558;48.242;11.654;2022-07-04T07:32:05;96566.84;;;19.09;100.00
62510;BME280;48558;48.242;11.654;2022-07-04T07:37:31;96548.66;;;18.86;100.00
62510;BME280;48558;48.242;11.654;2022-07-04T08:01:53;96541.72;;;20.08;99.47
62510;BME280;48558;48.242;11.654;2022-07-04T08:07:44;96478.50;;;20.72;91.70
62510;BME280;48558;48.242;11.654;2022-07-04T08:13:10;96499.47;;;21.29;86.15
62510;BME280;48558;48.242;11.654;2022-07-04T08:19:18;96525.91;;;21.39;80.18
62510;BME280;48558;48.242;11.654;2022-07-04T08:25:01;96524.56;;;22.06;76.86
62510;BME280;48558;48.242;11.654;2022-07-04T08:37:37;96471.91;;;21.48;79.52
62510;BME280;48558;48.242;11.654;2022-07-04T08:43:50;96476.75;;;22.42;72.11
62510;BME280;48558;48.242;11.654;2022-07-04T09:03:11;96450.91;;;24.29;60.61
62510;BME280;48558;48.242;11.654;2022-07-04T09:09:12;96523.28;;;25.74;54.73
62510;BME280;48558;48.242;11.654;2022-07-04T09:15:29;96524.81;;;25.75;51.91
62510;BME280;48558;48.242;11.654;2022-07-04T09:20:58;96514.56;;;25.79;47.60
62510;BME280;48558;48.242;11.654;2022-07-04T09:33:07;96519.38;;;26.17;46.37
62510;BME280;48558;48.242;11.654;2022-07-04T09:38:31;96497.84;;;26.38;47.70
62510;BME280;48558;48.242;11.654;2022-07-04T09:45:09;96476.66;;;25.92;47.91
62510;BME280;48558;48.242;11.654;2022-07-04T09:50:54;96500.75;;;25.83;49.86
62510;BME280;48558;48.242;11.654;2022-07-04T09:56:44;96484.53;;;27.23;46.05
62510;BME280;48558;48.242;11.654;2022-07-04T10:02:17;96518.00;;;27.56;43.08
62510;BME280;48558;48.242;11.654;2022-07-04T10:07:33;96514.31;;;26.40;46.95
62510;BME280;48558;48.242;11.654;2022-07-04T10:13:10;96459.59;;;27.31;41.95
62510;BME280;48558;48.242;11.654;2022-07-04T10:18:35;96509.84;;;26.29;46.71
62510;BME280;48558;48.242;11.654;2022-07-04T10:24:11;96509.50;;;26.82;49.05
62510;BME280;48558;48.242;11.654;2022-07-04T10:29:46;96491.00;;;26.74;43.30
62510;BME280;48558;48.242;11.654;2022-07-04T10:42:27;96478.25;;;25.70;48.28
62510;BME280;48558;48.242;11.654;2022-07-04T10:54:50;96500.66;;;25.36;51.72
62510;BME280;48558;48.242;11.654;2022-07-04T11:06:52;96480.59;;;26.12;48.01
62510;BME280;48558;48.242;11.654;2022-07-04T11:12:25;96461.91;;;25.86;47.14
62510;BME280;48558;48.242;11.654;2022-07-04T11:18:22;96443.59;;;25.09;48.81
62510;BME280;48558;48.242;11.654;2022-07-04T11:23:59;96458.78;;;26.71;44.85
62510;BME280;48558;48.242;11.654;2022-07-04T11:30:13;96486.56;;;25.76;47.16
62510;BME280;48558;48.242;11.654;2022-07-04T11:36:22;96453.50;;;27.34;43.56
62510;BME280;48558;48.242;11.654;2022-07-04T11:41:46;96439.09;;;27.49;46.12
62510;BME280;48558;48.242;11.654;2022-07-04T11:53:13;96436.88;;;25.92;47.17
62510;BME280;48558;48.242;11.654;2022-07-04T11:58:47;96459.13;;;26.18;46.47
62510;BME280;48558;48.242;11.654;2022-07-04T12:04:37;96442.31;;;26.13;47.17
62510;BME280;48558;48.242;11.654;2022-07-04T12:16:13;96438.88;;;26.71;45.05
62510;BME280;48558;48.242;11.654;2022-07-04T12:34:00;96379.31;;;26.98;46.38
62510;BME280;48558;48.242;11.654;2022-07-04T12:39:49;96422.78;;;28.11;41.91
62510;BME280;48558;48.242;11.654;2022-07-04T12:45:24;96385.94;;;27.96;40.57
62510;BME280;48558;48.242;11.654;2022-07-04T12:51:45;96372.78;;;27.39;41.76
62510;BME280;48558;48.242;11.654;2022-07-04T13:03:12;96359.44;;;27.07;44.05
62510;BME280;48558;48.242;11.654;2022-07-04T13:08:48;96391.03;;;27.02;44.40
62510;BME280;48558;48.242;11.654;2022-07-04T13:14:10;96400.53;;;27.39;44.90
62510;BME280;48558;48.242;11.654;2022-07-04T13:19:37;96342.84;;;28.45;40.87
62510;BME280;48558;48.242;11.654;2022-07-04T13:24:40;96377.59;;;28.80;40.93
62510;BME280;48558;48.242;11.654;2022-07-04T13:29:43;96363.56;;;27.14;43.56
62510;BME280;48558;48.242;11.654;2022-07-04T13:34:47;96366.56;;;29.03;40.02
62510;BME280;48558;48.242;11.654;2022-07-04T13:39:50;96369.94;;;28.36;41.17
62510;BME280;48558;48.242;11.654;2022-07-04T13:44:54;96364.94;;;29.19;38.98
62510;BME280;48558;48.242;11.654;2022-07-04T13:50:00;96348.09;;;29.52;43.25
62510;BME280;48558;48.242;11.654;2022-07-04T13:55:52;96295.59;;;28.71;41.24
62510;BME280;48558;48.242;11.654;2022-07-04T14:01:24;96352.53;;;27.52;42.61
62510;BME280;48558;48.242;11.654;2022-07-04T14:07:31;96337.13;;;25.88;45.59
62510;BME280;48558;48.242;11.654;2022-07-04T14:12:49;96334.69;;;25.45;48.42
62510;BME280;48558;48.242;11.654;2022-07-04T14:18:49;96308.66;;;25.71;50.39
62510;BME280;48558;48.242;11.654;2022-07-04T14:30:09;96315.22;;;28.11;42.18
62510;BME280;48558;48.242;11.654;2022-07-04T14:36:06;96272.56;;;27.67;41.14
62510;BME280;48558;48.242;11.654;2022-07-04T14:42:05;96296.94;;;26.24;45.27
62510;BME280;48558;48.242;11.654;2022-07-04T14:48:02;96324.50;;;26.06;47.66
62510;BME280;48558;48.242;11.654;2022-07-04T14:54:11;96275.41;;;25.64;48.58
62510;BME280;48558;48.242;11.654;2022-07-04T14:59:29;96275.34;;;25.39;46.73
62510;BME280;48558;48.242;11.654;2022-07-04T15:11:42;96286.31;;;27.00;44.58
62510;BME280;48558;48.242;11.654;2022-07-04T15:17:50;96251.88;;;27.94;45.27
62510;BME280;48558;48.242;11.654;2022-07-04T15:23:19;96215.69;;;27.86;43.46
62510;BME280;48558;48.242;11.654;2022-07-04T15:29:08;96230.38;;;28.29;40.77
62510;BME280;48558;48.242;11.654;2022-07-04T15:34:55;96232.38;;;28.55;39.24
62510;BME280;48558;48.242;11.654;2022-07-04T15:40:32;96262.44;;;28.94;38.79
62510;BME280;48558;48.242;11.654;2022-07-04T15:46:11;96196.38;;;27.58;39.48
62510;BME280;48558;48.242;11.654;2022-07-04T15:52:08;96212.13;;;27.59;39.55
62510;BME280;48558;48.242;11.654;2022-07-04T15:57:15;96213.38;;;26.02;42.04
62510;BME280;48558;48.242;11.654;2022-07-04T16:02:21;96261.34;;;25.98;42.77
62510;BME280;48558;48.242;11.654;2022-07-04T16:07:24;96253.50;;;25.57;46.04
62510;BME280;48558;48.242;11.654;2022-07-04T16:12:27;96240.00;;;25.33;46.12
62510;BME280;48558;48.242;11.654;2022-07-04T16:17:32;96243.66;;;25.18;46.52
62510;BME280;48558;48.242;11.654;2022-07-04T16:22:36;96223.38;;;24.82;47.94
62510;BME280;48558;48.242;11.654;2022-07-04T16:27:55;96229.00;;;24.34;48.04
62510;BME280;48558;48.242;11.654;2022-07-04T16:33:17;96195.81;;;24.05;47.89
62510;BME280;48558;48.242;11.654;2022-07-04T16:38:48;96234.28;;;24.15;48.26
62510;BME280;48558;48.242;11.654;2022-07-04T16:44:22;96246.38;;;24.38;48.46
62510;BME280;48558;48.242;11.654;2022-07-04T16:50:05;96239.22;;;24.37;48.32
62510;BME280;48558;48.242;11.654;2022-07-04T16:55:28;96221.84;;;24.03;49.22
62510;BME280;48558;48.242;11.654;2022-07-04T17:00:40;96190.19;;;23.75;49.03
62510;BME280;48558;48.242;11.654;2022-07-04T17:12:12;96177.72;;;23.70;52.29
62510;BME280;48558;48.242;11.654;2022-07-04T17:17:30;96209.41;;;23.68;50.77
62510;BME280;48558;48.242;11.654;2022-07-04T17:23:17;96251.88;;;23.76;52.37
62510;BME280;48558;48.242;11.654;2022-07-04T17:28:41;96252.44;;;23.67;52.39
62510;BME280;48558;48.242;11.654;2022-07-04T17:34:46;96189.69;;;23.02;53.00
62510;BME280;48558;48.242;11.654;2022-07-04T17:40:52;96239.13;;;23.24;53.51
62510;BME280;48558;48.242;11.654;2022-07-04T17:46:55;96178.34;;;22.87;54.04
62510;BME280;48558;48.242;11.654;2022-07-04T17:53:11;96191.81;;;22.74;56.20
62510;BME280;48558;48.242;11.654;2022-07-04T17:58:55;96238.88;;;23.07;55.37
62510;BME280;48558;48.242;11.654;2022-07-04T18:04:16;96246.88;;;22.80;57.07
62510;BME280;48558;48.242;11.654;2022-07-04T18:10:02;96196.22;;;22.47;57.65
62510;BME280;48558;48.242;11.654;2022-07-04T18:15:37;96240.97;;;22.71;59.48
62510;BME280;48558;48.242;11.654;2022-07-04T18:20:51;96192.22;;;22.34;58.61
62510;BME280;48558;48.242;11.654;2022-07-04T18:26:15;96211.59;;;22.30;59.67
62510;BME280;48558;48.242;11.654;2022-07-04T18:31:54;96232.38;;;22.48;60.02
62510;BME280;48558;48.242;11.654;2022-07-04T18:37:04;96199.38;;;22.07;60.86
62510;BME280;48558;48.242;11.654;2022-07-04T18:42:14;96232.75;;;22.16;61.63
62510;BME280;48558;48.242;11.654;2022-07-04T18:47:39;96232.50;;;22.07;62.88
62510;BME280;48558;48.242;11.654;2022-07-04T18:52:59;96211.72;;;21.69;64.34
62510;BME280;48558;48.242;11.654;2022-07-04T18:58:02;96260.94;;;21.88;65.79
62510;BME280;48558;48.242;11.654;2022-07-04T19:03:27;96254.63;;;21.75;64.70
62510;BME280;48558;48.242;11.654;2022-07-04T19:08:48;96293.66;;;21.84;65.70
62510;BME280;48558;48.242;11.654;2022-07-04T19:14:00;96307.72;;;20.17;85.98
62510;BME280;48558;48.242;11.654;2022-07-04T19:19:28;96287.94;;;19.27;98.26
62510;BME280;48558;48.242;11.654;2022-07-04T19:24:57;96359.28;;;18.81;100.00
62510;BME280;48558;48.242;11.654;2022-07-04T19:30:05;96393.00;;;18.28;100.00
62510;BME280;48558;48.242;11.654;2022-07-04T19:35:10;96415.81;;;17.83;100.00
62510;BME280;48558;48.242;11.654;2022-07-04T19:40:19;96413.31;;;17.28;100.00
62510;BME280;48558;48.242;11.654;2022-07-04T19:46:02;96426.13;;;17.18;100.00
62510;BME280;48558;48.242;11.654;2022-07-04T19:51:20;96397.56;;;16.67;100.00
62510;BME280;48558;48.242;11.654;2022-07-04T19:56:43;96444.38;;;16.61;100.00
62510;BME280;48558;48.242;11.654;2022-07-04T20:02:12;96429.88;;;16.52;100.00
62510;BME280;48558;48.242;11.654;2022-07-04T20:07:26;96467.28;;;16.43;100.00
62510;BME280;48558;48.242;11.654;2022-07-04T20:12:57;96473.13;;;16.45;100.00
62510;BME280;48558;48.242;11.654;2022-07-04T20:18:27;96474.63;;;16.46;100.00
62510;BME280;48558;48.242;11.654;2022-07-04T20:23:50;96467.78;;;16.36;100.00
62510;BME280;48558;48.242;11.654;2022-07-04T20:29:05;96515.84;;;16.40;100.00
62510;BME280;48558;48.242;11.654;2022-07-04T20:34:37;96515.34;;;16.47;100.00
62510;BME280;48558;48.242;11.654;2022-07-04T20:40:53;96479.50;;;16.07;100.00
62510;BME280;48558;48.242;11.654;2022-07-04T20:46:36;96461.16;;;15.73;100.00
62510;BME280;48558;48.242;11.654;2022-07-04T20:51:58;96493.94;;;15.94;100.00
62510;BME280;48558;48.242;11.654;2022-07-04T21:03:27;96478.44;;;15.82;100.00
62510;BME280;48558;48.242;11.654;2022-07-04T21:08:44;96490.16;;;15.92;100.00
62510;BME280;48558;48.242;11.654;2022-07-04T21:14:10;96478.47;;;15.93;100.00
62510;BME280;48558;48.242;11.654;2022-07-04T21:20:06;96500.31;;;16.17;100.00
62510;BME280;48558;48.242;11.654;2022-07-04T21:25:22;96486.59;;;15.97;100.00
62510;BME280;48558;48.242;11.654;2022-07-04T21:30:34;96502.13;;;16.20;100.00
62510;BME280;48558;48.242;11.654;2022-07-04T21:36:36;96538.72;;;16.33;100.00
62510;BME280;48558;48.242;11.654;2022-07-04T21:42:27;96542.56;;;16.30;100.00
62510;BME280;48558;48.242;11.654;2022-07-04T21:47:46;96491.41;;;15.91;100.00
62510;BME280;48558;48.242;11.654;2022-07-04T21:53:21;96495.50;;;16.07;100.00
62510;BME280;48558;48.242;11.654;2022-07-04T21:58:38;96546.63;;;16.40;100.00
62510;BME280;48558;48.242;11.654;2022-07-04T22:10:33;96490.41;;;15.94;100.00
62510;BME280;48558;48.242;11.654;2022-07-04T22:15:56;96501.09;;;16.07;100.00
62510;BME280;48558;48.242;11.654;2022-07-04T22:21:49;96519.91;;;16.12;100.00
62510;BME280;48558;48.242;11.654;2022-07-04T22:27:12;96500.56;;;16.08;100.00
62510;BME280;48558;48.242;11.654;2022-07-04T22:32:47;96494.25;;;16.08;100.00
62510;BME280;48558;48.242;11.654;2022-07-04T22:38:21;96495.75;;;15.97;100.00
62510;BME280;48558;48.242;11.654;2022-07-04T22:43:46;96546.88;;;16.20;100.00
62510;BME280;48558;48.242;11.654;2022-07-04T22:49:13;96522.47;;;16.21;100.00
62510;BME280;48558;48.242;11.654;2022-07-04T22:54:42;96545.63;;;16.32;100.00
62510;BME280;48558;48.242;11.654;2022-07-04T23:00:19;96516.09;;;16.20;100.00
62510;BME280;48558;48.242;11.654;2022-07-04T23:06:05;96526.78;;;16.27;100.00
62510;BME280;48558;48.242;11.654;2022-07-04T23:11:49;96535.44;;;16.29;100.00
62510;BME280;48558;48.242;11.654;2022-07-04T23:18:08;96529.34;;;16.36;100.00
62510;BME280;48558;48.242;11.654;2022-07-04T23:29:47;96529.59;;;16.38;100.00
62510;BME280;48558;48.242;11.654;2022-07-04T23:42:26;96498.53;;;16.31;100.00
62510;BME280;48558;48.242;11.654;2022-07-04T23:47:52;96456.84;;;15.99;100.00
62510;BME280;48558;48.242;11.654;2022-07-04T23:53:53;96465.25;;;16.05;100.00
